Time;durP1;ratioP1;P1;durP2;ratioP2;P2;SDS_P1;SDS_P2;PMS_P1;PMS_P2;Temp;Humidity;BMP_temperature;BMP_pressure;BME280_temperature;BME280_humidity;BME280_pressure;Samples;Min_cycle;Max_cycle;Signal;HPM_P1;HPM_P2
2021/11/23 00:02:11;;;;;;;8.18;4.60;;;12.00;77.50;;;;;;4994324;28;20113;-77
2021/11/23 00:04:36;;;;;;;8.35;4.93;;;12.00;77.50;;;;;;4995276;28;20111;-76
2021/11/23 00:07:02;;;;;;;7.90;5.15;;;12.00;77.60;;;;;;4995536;28;20065;-77
2021/11/23 00:09:27;;;;;;;9.45;4.90;;;12.00;77.70;;;;;;4994284;28;20045;-77
2021/11/23 00:11:53;;;;;;;7.22;4.75;;;11.80;77.70;;;;;;4994165;28;20065;-77
2021/11/23 00:14:19;;;;;;;10.93;5.28;;;12.00;77.80;;;;;;4995114;28;20023;-76
2021/11/23 00:16:44;;;;;;;9.18;5.55;;;11.90;77.90;;;;;;4995433;28;20074;-76
2021/11/23 00:19:10;;;;;;;9.60;5.32;;;11.90;77.90;;;;;;4994230;28;20121;-77
2021/11/23 00:21:35;;;;;;;9.35;4.97;;;11.80;77.90;;;;;;4994215;28;20116;-77
2021/11/23 00:24:01;;;;;;;9.55;5.30;;;11.90;78.00;;;;;;4993900;28;20102;-77
2021/11/23 00:26:27;;;;;;;11.88;6.00;;;11.90;78.00;;;;;;4993935;28;20157;-76
2021/11/23 00:28:53;;;;;;;10.02;5.40;;;11.90;78.00;;;;;;4993856;28;20030;-77
2021/11/23 00:31:18;;;;;;;9.10;5.93;;;11.80;77.90;;;;;;4995188;28;20038;-76
2021/11/23 00:33:44;;;;;;;11.55;6.03;;;11.90;77.90;;;;;;4994753;28;20650;-77
2021/11/23 00:36:11;;;;;;;10.00;5.68;;;12.00;77.90;;;;;;4993416;28;20029;-76
2021/11/23 00:38:42;;;;;;;9.38;5.80;;;11.90;77.80;;;;;;4993786;28;20109;-77
2021/11/23 00:41:09;;;;;;;14.53;5.97;;;11.90;77.90;;;;;;4993776;28;20077;-76
2021/11/23 00:43:35;;;;;;;14.07;5.93;;;11.90;77.80;;;;;;4993498;28;20026;-76
2021/11/23 00:46:00;;;;;;;10.02;5.57;;;11.90;78.00;;;;;;4994613;28;20077;-78
2021/11/23 00:48:26;;;;;;;10.68;5.60;;;11.90;77.90;;;;;;4993571;28;20049;-78
2021/11/23 00:50:52;;;;;;;10.27;5.45;;;11.90;77.80;;;;;;4994924;28;20476;-78
2021/11/23 00:53:17;;;;;;;9.85;5.47;;;11.90;77.80;;;;;;4994694;28;20062;-78
2021/11/23 00:55:43;;;;;;;8.85;5.43;;;11.90;77.80;;;;;;4993208;28;20033;-77
2021/11/23 00:58:09;;;;;;;9.55;5.68;;;11.80;77.90;;;;;;4993338;28;20026;-77
2021/11/23 01:00:35;;;;;;;10.70;5.93;;;11.90;78.00;;;;;;4994597;28;20034;-79
2021/11/23 01:03:01;;;;;;;7.90;5.05;;;11.90;77.90;;;;;;4993302;28;20391;-77
2021/11/23 01:05:27;;;;;;;9.23;5.57;;;11.80;77.90;;;;;;5027898;22;20053;-78
2021/11/23 01:07:52;;;;;;;9.32;5.65;;;11.90;77.90;;;;;;4974306;28;20053;-76
2021/11/23 01:10:19;;;;;;;9.27;5.70;;;11.90;77.90;;;;;;4973715;28;20504;-77
2021/11/23 01:12:44;;;;;;;7.85;5.22;;;11.90;77.90;;;;;;4973747;28;20473;-77
2021/11/23 01:15:10;;;;;;;8.02;5.35;;;11.90;78.40;;;;;;4973339;28;20034;-77
2021/11/23 01:17:36;;;;;;;8.25;5.47;;;11.90;77.80;;;;;;4973791;28;20102;-78
2021/11/23 01:20:05;;;;;;;8.48;5.25;;;11.90;77.80;;;;;;4973023;28;20030;-78
2021/11/23 01:22:30;;;;;;;8.68;5.40;;;11.80;77.80;;;;;;4973166;28;20105;-77
2021/11/23 01:24:56;;;;;;;9.40;5.53;;;11.90;77.80;;;;;;4973148;28;20161;-78
2021/11/23 01:27:22;;;;;;;9.15;5.50;;;11.90;77.80;;;;;;4973399;28;20035;-78
2021/11/23 01:29:47;;;;;;;9.20;5.93;;;11.80;77.80;;;;;;4973147;28;20031;-76
2021/11/23 01:32:13;;;;;;;9.40;5.95;;;11.70;77.70;;;;;;4974583;28;20046;-78
2021/11/23 01:34:39;;;;;;;9.95;6.03;;;11.80;77.70;;;;;;4972687;28;20023;-77
2021/11/23 01:37:04;;;;;;;10.30;6.03;;;11.90;77.70;;;;;;4974444;28;20396;-76
2021/11/23 01:39:30;;;;;;;8.68;5.78;;;11.90;77.80;;;;;;4974429;28;20027;-76
2021/11/23 01:41:56;;;;;;;9.27;5.50;;;11.90;77.80;;;;;;4974385;28;20580;-78
2021/11/23 01:44:22;;;;;;;9.32;6.28;;;11.80;77.80;;;;;;4974185;28;20499;-77
2021/11/23 01:46:48;;;;;;;8.38;5.53;;;11.90;77.80;;;;;;4972206;28;20031;-77
2021/11/23 01:49:14;;;;;;;9.30;5.40;;;11.90;77.80;;;;;;4973026;28;20505;-77
2021/11/23 01:51:40;;;;;;;13.70;6.20;;;11.80;77.80;;;;;;4974265;28;20101;-78
2021/11/23 01:54:06;;;;;;;8.88;5.53;;;11.90;77.90;;;;;;4973975;28;20027;-77
2021/11/23 01:56:32;;;;;;;10.05;5.68;;;11.90;77.80;;;;;;4974082;28;20023;-76
2021/11/23 01:58:58;;;;;;;8.57;5.43;;;11.90;77.70;;;;;;4974086;28;20082;-77
2021/11/23 02:01:24;;;;;;;7.95;5.25;;;11.80;77.70;;;;;;4972886;28;20022;-77
2021/11/23 02:03:50;;;;;;;8.38;5.68;;;11.90;77.80;;;;;;4972849;28;20023;-77
2021/11/23 02:06:16;;;;;;;8.32;5.32;;;11.90;77.80;;;;;;4972499;28;20473;-78
2021/11/23 02:08:42;;;;;;;8.90;5.20;;;11.80;77.80;;;;;;4973872;28;20055;-77
2021/11/23 02:11:07;;;;;;;8.18;5.45;;;11.80;77.90;;;;;;4972726;28;20098;-76
2021/11/23 02:13:33;;;;;;;9.15;5.57;;;11.70;77.80;;;;;;4972839;28;20472;-76
2021/11/23 02:16:00;;;;;;;8.15;5.65;;;11.90;77.90;;;;;;4972375;28;20018;-77
2021/11/23 02:18:27;;;;;;;9.57;5.80;;;11.90;78.00;;;;;;4974028;28;20154;-77
2021/11/23 02:20:54;;;;;;;8.85;5.32;;;11.80;77.90;;;;;;4972601;28;20023;-77
2021/11/23 02:23:21;;;;;;;8.18;5.35;;;11.70;77.90;;;;;;4972592;28;20392;-76
2021/11/23 02:25:47;;;;;;;8.68;5.57;;;11.70;77.90;;;;;;4972378;28;20030;-76
2021/11/23 02:28:13;;;;;;;9.15;5.28;;;11.80;77.90;;;;;;4972556;28;20019;-77
2021/11/23 02:30:48;;;;;;;8.07;5.38;;;11.80;77.90;;;;;;4973693;28;20023;-77
2021/11/23 02:33:16;;;;;;;9.40;5.45;;;11.80;77.90;;;;;;4973299;28;20113;-76
2021/11/23 02:35:42;;;;;;;8.50;5.80;;;11.80;77.90;;;;;;4973451;28;20113;-78
2021/11/23 02:38:07;;;;;;;8.07;5.40;;;11.80;77.90;;;;;;4973711;28;20046;-77
2021/11/23 02:40:33;;;;;;;9.20;5.57;;;11.80;78.00;;;;;;4972515;28;20469;-76
2021/11/23 02:42:59;;;;;;;8.52;5.57;;;11.70;78.00;;;;;;4973666;28;20023;-76
2021/11/23 02:45:27;;;;;;;9.30;5.72;;;11.90;78.00;;;;;;4973400;28;20069;-77
2021/11/23 02:47:55;;;;;;;8.75;5.20;;;11.90;78.10;;;;;;4973583;28;20564;-76
2021/11/23 02:50:22;;;;;;;9.88;6.10;;;11.90;78.30;;;;;;4972249;28;20499;-76
2021/11/23 02:52:49;;;;;;;9.20;5.97;;;11.90;78.20;;;;;;4973536;28;20027;-76
2021/11/23 02:55:16;;;;;;;10.00;5.88;;;11.80;78.10;;;;;;4973272;28;20073;-77
2021/11/23 02:57:42;;;;;;;10.43;5.95;;;11.90;78.20;;;;;;4973460;28;20027;-76
2021/11/23 03:00:10;;;;;;;12.60;6.15;;;12.00;78.10;;;;;;4976310;28;20101;-76
2021/11/23 03:02:37;;;;;;;10.02;5.78;;;11.90;78.00;;;;;;4977218;28;20038;-76
2021/11/23 03:05:04;;;;;;;9.98;5.68;;;11.80;77.90;;;;;;4976871;28;20393;-76
2021/11/23 03:07:30;;;;;;;9.88;6.22;;;12.00;77.90;;;;;;4977148;28;20097;-76
2021/11/23 03:09:56;;;;;;;11.23;5.95;;;12.00;77.80;;;;;;4975958;28;20034;-76
2021/11/23 03:12:24;;;;;;;21.40;6.50;;;12.00;77.70;;;;;;4975984;28;20027;-77
2021/11/23 03:14:49;;;;;;;10.48;5.78;;;12.00;77.60;;;;;;4975641;28;20027;-77
2021/11/23 03:17:18;;;;;;;14.23;6.55;;;12.00;77.60;;;;;;4975887;28;20540;-76
2021/11/23 03:19:45;;;;;;;10.43;5.93;;;11.90;77.60;;;;;;4975701;28;20061;-76
2021/11/23 03:22:11;;;;;;;23.80;7.28;;;11.90;77.80;;;;;;4976955;28;20473;-76
2021/11/23 03:24:38;;;;;;;11.50;6.00;;;11.90;77.70;;;;;;4975437;28;20477;-76
2021/11/23 03:27:05;;;;;;;10.68;6.18;;;11.90;77.60;;;;;;4975751;28;20027;-76
2021/11/23 03:29:31;;;;;;;12.13;6.05;;;11.90;77.60;;;;;;4976762;28;20035;-77
2021/11/23 03:31:57;;;;;;;10.77;6.32;;;11.80;77.70;;;;;;4976879;28;20022;-76
2021/11/23 03:34:23;;;;;;;10.40;6.00;;;11.90;77.70;;;;;;4976339;28;20033;-77
2021/11/23 03:36:50;;;;;;;10.95;6.30;;;11.90;77.80;;;;;;4976617;28;20019;-78
2021/11/23 03:39:16;;;;;;;10.57;6.57;;;11.80;77.90;;;;;;4975423;28;20031;-76
2021/11/23 03:41:42;;;;;;;10.20;6.05;;;11.80;78.00;;;;;;4972957;28;20034;-78
2021/11/23 03:44:08;;;;;;;10.45;6.15;;;11.80;78.10;;;;;;4965778;28;20023;-76
2021/11/23 03:46:34;;;;;;;11.95;6.28;;;11.90;78.20;;;;;;4957015;28;20102;-77
2021/11/23 03:48:59;;;;;;;11.07;6.35;;;11.80;78.20;;;;;;4957110;29;20046;-77
2021/11/23 03:51:26;;;;;;;8.48;6.00;;;11.70;78.20;;;;;;4957080;29;20057;-78
2021/11/23 03:53:52;;;;;;;10.88;6.53;;;11.80;78.30;;;;;;4957045;28;20031;-76
2021/11/23 03:56:18;;;;;;;9.80;6.07;;;11.80;78.30;;;;;;4955601;28;20032;-76
2021/11/23 03:58:44;;;;;;;12.90;6.65;;;11.70;78.30;;;;;;4957017;29;20046;-76
2021/11/23 04:01:09;;;;;;;9.63;6.72;;;11.60;78.30;;;;;;4955772;29;20409;-76
2021/11/23 04:03:36;;;;;;;10.48;6.55;;;11.80;78.40;;;;;;4955814;28;20015;-76
2021/11/23 04:06:02;;;;;;;10.02;6.35;;;11.80;78.40;;;;;;4956509;28;20382;-76
2021/11/23 04:08:28;;;;;;;9.07;6.35;;;11.80;78.50;;;;;;4955400;28;20027;-77
2021/11/23 04:10:54;;;;;;;11.60;6.55;;;11.70;78.40;;;;;;4956095;29;20031;-76
2021/11/23 04:13:20;;;;;;;11.98;6.07;;;11.70;78.40;;;;;;4956795;29;20019;-76
2021/11/23 04:15:47;;;;;;;9.93;6.65;;;11.80;78.50;;;;;;4956470;28;20023;-77
2021/11/23 04:18:13;;;;;;;9.50;6.75;;;11.70;78.50;;;;;;4956528;29;20054;-78
2021/11/23 04:20:38;;;;;;;8.27;5.90;;;11.70;78.50;;;;;;4955479;29;20072;-79
2021/11/23 04:23:05;;;;;;;10.52;6.45;;;11.60;78.40;;;;;;4955338;29;20023;-78
2021/11/23 04:25:31;;;;;;;10.30;6.20;;;11.70;78.50;;;;;;4956089;28;20039;-78
2021/11/23 04:27:57;;;;;;;10.20;6.15;;;11.70;78.40;;;;;;4955271;29;20556;-77
2021/11/23 04:30:24;;;;;;;10.13;6.15;;;11.70;78.40;;;;;;4956504;28;20119;-78
2021/11/23 04:32:50;;;;;;;9.23;6.05;;;11.80;78.50;;;;;;4951740;28;20054;-77
2021/11/23 04:35:16;;;;;;;9.95;6.15;;;11.70;78.40;;;;;;4971001;28;20663;-77
2021/11/23 04:37:43;;;;;;;10.60;6.35;;;11.70;78.40;;;;;;4971172;28;20114;-78
2021/11/23 04:40:11;;;;;;;9.57;6.38;;;11.70;78.40;;;;;;4956379;28;20053;-78
2021/11/23 04:42:37;;;;;;;8.50;5.93;;;11.70;78.40;;;;;;4955034;29;20058;-77
2021/11/23 04:45:04;;;;;;;8.52;6.00;;;11.70;78.40;;;;;;4954788;28;20027;-78
2021/11/23 04:47:30;;;;;;;9.52;6.35;;;11.70;78.40;;;;;;4956093;28;20027;-77
2021/11/23 04:49:56;;;;;;;9.55;6.32;;;11.70;78.50;;;;;;4954421;29;20042;-78
2021/11/23 04:52:21;;;;;;;9.73;6.63;;;11.70;78.50;;;;;;4955977;28;20023;-78
2021/11/23 04:54:47;;;;;;;9.02;6.18;;;11.70;78.50;;;;;;4970625;28;20077;-78
2021/11/23 04:57:13;;;;;;;8.20;6.20;;;11.70;78.50;;;;;;4954718;28;20023;-78
2021/11/23 04:59:39;;;;;;;9.68;6.00;;;11.60;78.40;;;;;;4954716;29;20086;-76
2021/11/23 05:02:04;;;;;;;10.48;6.28;;;11.60;78.50;;;;;;4955856;28;20035;-76
2021/11/23 05:04:30;;;;;;;9.48;6.20;;;11.70;78.40;;;;;;4955770;28;20031;-77
2021/11/23 05:06:55;;;;;;;9.23;6.03;;;11.70;78.30;;;;;;4970421;28;20039;-77
2021/11/23 05:09:21;;;;;;;9.13;6.28;;;11.70;78.40;;;;;;4954544;29;20059;-78
2021/11/23 05:11:48;;;;;;;9.07;5.95;;;11.80;78.40;;;;;;4955625;28;20474;-78
2021/11/23 05:14:15;;;;;;;9.88;6.10;;;11.80;78.50;;;;;;4955439;28;20024;-79
2021/11/23 05:16:41;;;;;;;9.38;6.10;;;11.70;78.40;;;;;;4954266;28;20057;-78
2021/11/23 05:19:07;;;;;;;8.05;5.80;;;11.80;78.50;;;;;;4955488;28;20086;-76
2021/11/23 05:21:33;;;;;;;7.85;5.72;;;11.70;78.40;;;;;;4955312;28;20035;-76
2021/11/23 05:23:59;;;;;;;8.95;6.55;;;11.70;78.50;;;;;;4970332;28;20052;-77
2021/11/23 05:26:25;;;;;;;8.15;5.80;;;11.60;78.40;;;;;;4953920;28;20028;-77
2021/11/23 05:28:50;;;;;;;8.23;5.68;;;11.70;78.50;;;;;;4955314;28;20478;-76
2021/11/23 05:31:16;;;;;;;8.13;5.70;;;11.70;78.60;;;;;;4955303;28;20494;-77
2021/11/23 05:33:42;;;;;;;8.20;5.55;;;11.70;78.60;;;;;;4969665;28;20118;-77
2021/11/23 05:36:08;;;;;;;7.63;5.75;;;11.70;78.60;;;;;;4955149;28;20058;-76
2021/11/23 05:38:34;;;;;;;8.43;5.22;;;11.70;78.70;;;;;;4954055;29;20038;-76
2021/11/23 05:41:00;;;;;;;7.18;5.35;;;11.70;78.60;;;;;;4955104;28;20035;-77
2021/11/23 05:43:25;;;;;;;7.03;5.10;;;11.70;78.50;;;;;;4965671;28;20280;-77
2021/11/23 05:45:51;;;;;;;7.85;5.15;;;11.60;78.50;;;;;;4956932;28;20118;-76
2021/11/23 05:48:17;;;;;;;7.43;5.65;;;11.80;78.50;;;;;;4954985;29;20038;-76
2021/11/23 05:50:42;;;;;;;7.00;4.70;;;11.70;78.40;;;;;;4953731;29;20038;-76
2021/11/23 05:53:08;;;;;;;7.47;4.80;;;11.60;78.40;;;;;;4953664;29;20067;-77
2021/11/23 05:55:34;;;;;;;7.63;4.75;;;11.70;78.40;;;;;;4954539;28;20034;-78
2021/11/23 05:58:00;;;;;;;7.20;4.78;;;11.70;78.40;;;;;;4955759;28;20413;-76
2021/11/23 06:00:26;;;;;;;6.90;4.80;;;11.70;78.40;;;;;;4972694;28;20508;-76
2021/11/23 06:02:52;;;;;;;6.70;4.60;;;11.70;78.40;;;;;;4972896;28;20034;-76
2021/11/23 06:05:18;;;;;;;6.75;4.38;;;11.70;78.50;;;;;;4973651;28;20046;-78
2021/11/23 06:07:43;;;;;;;6.47;4.63;;;11.60;78.50;;;;;;4974085;28;20086;-77
2021/11/23 06:10:09;;;;;;;6.10;4.18;;;11.70;78.50;;;;;;4972749;28;20030;-77
2021/11/23 06:12:34;;;;;;;6.25;4.22;;;11.70;78.50;;;;;;4973999;28;20097;-75
2021/11/23 06:15:00;;;;;;;6.95;4.53;;;11.70;78.40;;;;;;4974363;28;20023;-75
2021/11/23 06:17:30;;;;;;;7.53;4.57;;;11.60;78.30;;;;;;4971570;28;20484;-75
2021/11/23 06:19:56;;;;;;;9.50;4.78;;;11.60;78.30;;;;;;4969130;28;20382;-75
2021/11/23 06:22:22;;;;;;;10.23;5.10;;;11.60;77.80;;;;;;4966569;28;20094;-77
2021/11/23 06:24:48;;;;;;;7.70;4.75;;;11.70;78.50;;;;;;4969622;28;20023;-77
2021/11/23 06:27:14;;;;;;;8.10;4.50;;;11.70;78.40;;;;;;4970014;28;20034;-77
2021/11/23 06:29:40;;;;;;;8.32;4.70;;;11.60;78.40;;;;;;4968843;28;20027;-79
2021/11/23 06:32:06;;;;;;;8.63;4.90;;;11.80;78.40;;;;;;4969683;28;20034;-77
2021/11/23 06:34:31;;;;;;;6.97;4.25;;;11.80;78.30;;;;;;4966301;28;20027;-77
2021/11/23 06:36:58;;;;;;;7.07;4.10;;;11.80;78.20;;;;;;4968828;28;20027;-78
2021/11/23 06:39:24;;;;;;;7.82;4.20;;;11.80;78.10;;;;;;4969111;28;20023;-76
2021/11/23 06:41:50;;;;;;;6.93;4.18;;;11.80;78.10;;;;;;4969121;28;20027;-78
2021/11/23 06:44:15;;;;;;;6.35;4.05;;;11.80;78.10;;;;;;4968600;28;20139;-76
2021/11/23 06:46:41;;;;;;;7.00;4.38;;;11.80;78.10;;;;;;4969996;28;20035;-79
2021/11/23 06:49:07;;;;;;;6.55;4.25;;;11.80;78.00;;;;;;4961418;28;20170;-78
2021/11/23 06:51:33;;;;;;;7.55;4.65;;;11.80;77.90;;;;;;4957156;28;20877;-79
2021/11/23 06:53:58;;;;;;;7.70;4.60;;;11.80;77.90;;;;;;4960315;28;20027;-76
2021/11/23 06:56:25;;;;;;;8.00;4.80;;;11.80;77.90;;;;;;4951540;28;20136;-81
2021/11/23 06:58:51;;;;;;;6.93;4.55;;;11.80;77.90;;;;;;4953998;28;20031;-77
2021/11/23 07:01:17;;;;;;;7.57;4.47;;;11.70;77.90;;;;;;4960186;28;20034;-79
2021/11/23 07:03:42;;;;;;;7.82;4.35;;;11.80;78.00;;;;;;4957179;28;20023;-76
2021/11/23 07:06:08;;;;;;;6.93;4.32;;;11.70;77.90;;;;;;4960187;28;20030;-82
2021/11/23 07:08:34;;;;;;;7.55;4.82;;;11.60;77.90;;;;;;4961909;28;20414;-77
2021/11/23 07:10:59;;;;;;;6.63;4.50;;;11.80;78.10;;;;;;4969640;28;20070;-76
2021/11/23 07:13:25;;;;;;;8.55;5.30;;;11.80;78.20;;;;;;4968444;28;20026;-78
2021/11/23 07:15:52;;;;;;;6.85;4.90;;;11.80;78.30;;;;;;4968307;28;20026;-76
2021/11/23 07:18:18;;;;;;;8.00;5.30;;;11.70;78.40;;;;;;4968207;28;20019;-76
2021/11/23 07:20:45;;;;;;;7.75;5.07;;;11.60;78.50;;;;;;4964253;28;20034;-77
2021/11/23 07:23:11;;;;;;;9.02;5.20;;;11.70;78.60;;;;;;4962744;28;20117;-77
2021/11/23 07:25:36;;;;;;;8.27;5.00;;;11.50;78.60;;;;;;4958908;28;20521;-79
2021/11/23 07:28:04;;;;;;;8.15;5.43;;;11.70;78.80;;;;;;4949047;29;20038;-76
2021/11/23 07:30:30;;;;;;;7.70;4.97;;;11.70;78.80;;;;;;4952848;28;20031;-79
2021/11/23 07:32:56;;;;;;;8.38;5.60;;;11.70;78.90;;;;;;4956897;28;20026;-77
2021/11/23 07:35:22;;;;;;;8.23;5.50;;;11.70;78.90;;;;;;4954187;28;20047;-81
2021/11/23 07:37:47;;;;;;;8.32;5.65;;;11.70;79.00;;;;;;4963725;28;20031;-76
2021/11/23 07:40:14;;;;;;;7.90;5.45;;;11.60;78.90;;;;;;4961890;28;20035;-80
2021/11/23 07:42:40;;;;;;;7.82;5.10;;;11.60;78.90;;;;;;4958100;28;20847;-76
2021/11/23 07:45:07;;;;;;;8.23;5.03;;;11.60;79.00;;;;;;4960190;28;20039;-78
2021/11/23 07:47:33;;;;;;;9.02;5.03;;;11.70;79.10;;;;;;4958995;28;20128;-78
2021/11/23 07:49:58;;;;;;;7.60;5.10;;;11.70;79.10;;;;;;4957304;28;20120;-77
2021/11/23 07:52:24;;;;;;;7.65;5.13;;;11.70;79.20;;;;;;4961845;28;20031;-78
2021/11/23 07:54:49;;;;;;;8.10;5.40;;;11.70;79.10;;;;;;4960785;28;20026;-77
2021/11/23 07:57:15;;;;;;;8.73;5.43;;;11.80;79.20;;;;;;4957234;28;20408;-77
2021/11/23 07:59:41;;;;;;;8.38;5.50;;;11.70;79.20;;;;;;4952074;29;20031;-82
2021/11/23 08:02:07;;;;;;;7.70;5.40;;;11.70;79.20;;;;;;4960622;28;20027;-77
2021/11/23 08:04:33;;;;;;;7.50;4.93;;;11.70;79.20;;;;;;4960018;28;20031;-83
2021/11/23 08:06:59;;;;;;;7.95;5.32;;;11.70;79.20;;;;;;4961242;28;20041;-78
2021/11/23 08:09:24;;;;;;;8.20;5.78;;;11.70;79.20;;;;;;4959603;28;20031;-76
2021/11/23 08:11:50;;;;;;;8.52;5.53;;;11.60;79.20;;;;;;4963448;28;20034;-76
2021/11/23 08:14:15;;;;;;;8.48;5.80;;;11.70;79.30;;;;;;4952658;28;20058;-76
2021/11/23 08:16:41;;;;;;;8.25;5.78;;;11.70;79.30;;;;;;4951849;28;20023;-78
2021/11/23 08:19:07;;;;;;;7.72;5.25;;;11.70;79.30;;;;;;4952668;28;20401;-77
2021/11/23 08:21:32;;;;;;;7.75;5.13;;;11.60;79.20;;;;;;4948744;29;20066;-76
2021/11/23 08:23:58;;;;;;;11.52;5.28;;;11.70;79.30;;;;;;4950196;28;20114;-75
2021/11/23 08:26:25;;;;;;;9.63;5.28;;;11.60;79.10;;;;;;4950020;28;20086;-81
2021/11/23 08:28:50;;;;;;;12.40;5.30;;;11.80;79.20;;;;;;4950337;28;20027;-76
2021/11/23 08:31:16;;;;;;;8.70;5.30;;;11.70;79.20;;;;;;4948975;29;20027;-76
2021/11/23 08:33:42;;;;;;;11.30;5.68;;;11.70;79.10;;;;;;4949116;29;20031;-76
2021/11/23 08:36:08;;;;;;;9.75;5.30;;;11.70;79.20;;;;;;4948897;29;20031;-80
2021/11/23 08:38:36;;;;;;;9.05;5.72;;;11.70;79.20;;;;;;4958871;28;20082;-75
2021/11/23 08:41:01;;;;;;;11.43;5.82;;;11.70;79.10;;;;;;4970442;28;20771;-76
2021/11/23 08:43:27;;;;;;;9.20;5.85;;;11.70;79.10;;;;;;4967529;28;20035;-77
2021/11/23 08:45:53;;;;;;;10.70;6.07;;;11.70;79.00;;;;;;4967144;28;20031;-76
2021/11/23 08:48:18;;;;;;;8.40;5.35;;;11.70;79.10;;;;;;4968280;28;20130;-76
2021/11/23 08:50:44;;;;;;;8.75;5.40;;;11.70;79.10;;;;;;4967508;28;20125;-78
2021/11/23 08:53:10;;;;;;;8.82;5.88;;;11.80;79.20;;;;;;4968061;28;20034;-76
2021/11/23 08:55:37;;;;;;;8.48;5.65;;;11.70;79.70;;;;;;4968571;28;20031;-80
2021/11/23 08:58:03;;;;;;;10.20;5.90;;;11.70;79.30;;;;;;4969294;28;20022;-76
2021/11/23 09:00:29;;;;;;;8.73;5.65;;;11.70;79.20;;;;;;4967745;28;20042;-76
2021/11/23 09:02:58;;;;;;;8.68;6.15;;;11.70;79.30;;;;;;4968362;28;20308;-77
2021/11/23 09:05:24;;;;;;;8.55;5.47;;;11.70;79.30;;;;;;4969932;28;20045;-76
2021/11/23 09:07:51;;;;;;;9.30;5.95;;;11.70;79.20;;;;;;4971099;28;20031;-78
2021/11/23 09:10:28;;;;;;;8.88;6.00;;;11.70;78.80;;;;;;4970099;28;20485;-76
2021/11/23 09:12:57;;;;;;;9.93;6.55;;;11.70;78.30;;;;;;4969832;28;20519;-76
2021/11/23 09:15:23;;;;;;;14.05;6.70;;;11.60;78.10;;;;;;4968900;28;20092;-77
2021/11/23 09:17:50;;;;;;;8.68;6.05;;;11.70;78.30;;;;;;4967815;28;20022;-76
2021/11/23 09:20:17;;;;;;;11.15;6.43;;;11.70;78.50;;;;;;4968824;28;20027;-77
2021/11/23 09:22:43;;;;;;;9.43;6.50;;;11.70;78.60;;;;;;4967443;28;20070;-82
2021/11/23 09:25:12;;;;;;;10.90;6.60;;;11.70;78.70;;;;;;4968352;28;20085;-75
2021/11/23 09:27:38;;;;;;;8.95;6.30;;;11.70;78.90;;;;;;4967481;28;20478;-77
2021/11/23 09:30:07;;;;;;;8.82;6.20;;;11.70;78.90;;;;;;4967181;28;20034;-76
2021/11/23 09:32:33;;;;;;;9.73;6.55;;;11.70;79.00;;;;;;4968586;28;20451;-76
2021/11/23 09:34:59;;;;;;;8.80;6.57;;;11.70;79.10;;;;;;4966924;28;20266;-76
2021/11/23 09:37:25;;;;;;;9.20;6.75;;;11.70;79.20;;;;;;4967393;28;20460;-80
2021/11/23 09:39:51;;;;;;;10.10;6.25;;;11.70;79.20;;;;;;4967348;28;20129;-77
2021/11/23 09:42:18;;;;;;;9.90;7.47;;;11.80;79.30;;;;;;4967009;28;20034;-75
2021/11/23 09:44:44;;;;;;;10.95;6.68;;;11.70;79.30;;;;;;4968245;28;20023;-76
2021/11/23 09:47:11;;;;;;;9.07;6.60;;;11.70;79.80;;;;;;4968596;28;20670;-78
2021/11/23 09:49:37;;;;;;;9.43;7.13;;;11.70;79.30;;;;;;4966941;28;20041;-78
2021/11/23 09:52:03;;;;;;;8.27;6.22;;;11.70;79.40;;;;;;4968325;28;20019;-76
2021/11/23 09:54:28;;;;;;;11.00;6.82;;;11.70;79.50;;;;;;4967843;28;20396;-80
2021/11/23 09:56:54;;;;;;;8.75;7.00;;;11.70;79.50;;;;;;4966748;28;20026;-80
2021/11/23 09:59:21;;;;;;;9.90;6.78;;;11.70;79.50;;;;;;4968524;28;20050;-79
2021/11/23 10:01:48;;;;;;;10.55;7.25;;;11.70;79.50;;;;;;4964940;28;20050;-78
2021/11/23 10:04:13;;;;;;;10.65;7.25;;;11.70;79.50;;;;;;4958298;28;20019;-75
2021/11/23 10:06:56;;;;;;;10.48;7.05;;;11.80;79.50;;;;;;4958523;28;20515;-75
2021/11/23 10:09:30;;;;;;;10.50;7.10;;;11.60;79.50;;;;;;4967014;28;20796;-76
2021/11/23 10:12:34;;;;;;;9.93;7.70;;;11.70;79.50;;;;;;4968116;28;20234;-76
2021/11/23 10:15:19;;;;;;;9.23;7.35;;;11.70;79.60;;;;;;4945752;29;20034;-79
2021/11/23 10:17:50;;;;;;;11.73;6.90;;;11.70;79.50;;;;;;4919789;29;20031;-76
2021/11/23 10:20:41;;;;;;;9.77;6.70;;;11.70;79.40;;;;;;4939507;28;20038;-77
2021/11/23 10:23:21;;;;;;;10.00;6.88;;;11.80;79.40;;;;;;4949080;29;20031;-76
2021/11/23 10:25:50;;;;;;;9.45;7.20;;;11.80;79.30;;;;;;4946852;29;20031;-76
2021/11/23 10:28:17;;;;;;;10.48;7.13;;;11.70;79.20;;;;;;4952864;28;20027;-75
2021/11/23 10:30:46;;;;;;;8.77;6.85;;;11.80;79.20;;;;;;4951853;29;20122;-75
2021/11/23 10:33:14;;;;;;;9.10;7.15;;;11.90;79.20;;;;;;4954416;28;20168;-75
2021/11/23 10:35:43;;;;;;;10.98;7.10;;;11.90;79.20;;;;;;4952536;29;20093;-75
2021/11/23 10:38:09;;;;;;;9.30;7.10;;;11.90;79.20;;;;;;4954051;28;20020;-75
2021/11/23 10:40:37;;;;;;;9.93;7.47;;;11.80;79.10;;;;;;4952231;29;20055;-75
2021/11/23 10:43:10;;;;;;;9.98;7.28;;;11.80;79.60;;;;;;4952818;29;20032;-75
2021/11/23 10:45:42;;;;;;;10.75;7.85;;;11.80;79.20;;;;;;4953842;28;20548;-76
2021/11/23 10:48:10;;;;;;;9.75;7.72;;;11.90;79.20;;;;;;4954123;28;20031;-75
2021/11/23 10:50:38;;;;;;;10.60;7.57;;;11.80;79.20;;;;;;4953945;28;20023;-75
2021/11/23 10:53:12;;;;;;;11.35;7.28;;;11.90;79.30;;;;;;4952585;29;20502;-75
2021/11/23 10:55:42;;;;;;;9.98;7.43;;;11.80;79.20;;;;;;4952501;29;20043;-75
2021/11/23 10:58:10;;;;;;;9.88;7.57;;;11.80;79.30;;;;;;4954027;28;20023;-76
2021/11/23 11:00:42;;;;;;;10.52;7.53;;;11.70;79.40;;;;;;4953981;28;20033;-76
2021/11/23 11:03:09;;;;;;;12.32;7.10;;;11.80;79.90;;;;;;4952615;29;20027;-76
2021/11/23 11:05:40;;;;;;;10.13;7.93;;;11.70;79.90;;;;;;4952191;29;20043;-76
2021/11/23 11:08:07;;;;;;;11.27;8.10;;;11.70;80.10;;;;;;4952598;29;20023;-75
2021/11/23 11:10:35;;;;;;;9.85;7.35;;;11.60;80.10;;;;;;4952467;29;20027;-75
2021/11/23 11:13:03;;;;;;;12.52;7.63;;;11.60;80.20;;;;;;4952491;29;20023;-76
2021/11/23 11:15:39;;;;;;;10.13;7.63;;;11.70;80.40;;;;;;4953418;28;20054;-76
2021/11/23 11:18:11;;;;;;;10.30;7.28;;;11.70;80.40;;;;;;4953786;28;20508;-76
2021/11/23 11:20:55;;;;;;;10.27;8.07;;;11.70;80.50;;;;;;4956147;29;20404;-76
2021/11/23 11:23:25;;;;;;;10.15;7.32;;;11.70;80.50;;;;;;4956208;29;20035;-76
2021/11/23 11:26:14;;;;;;;11.45;7.60;;;11.70;80.60;;;;;;4956988;28;20617;-76
2021/11/23 11:28:48;;;;;;;10.07;7.60;;;11.70;80.50;;;;;;4957176;28;20066;-75
2021/11/23 11:31:38;;;;;;;9.00;7.28;;;11.70;80.60;;;;;;4955995;29;20118;-76
2021/11/23 11:34:31;;;;;;;10.90;8.07;;;11.70;80.70;;;;;;4949955;29;20039;-73
2021/11/23 11:37:00;;;;;;;10.90;7.60;;;11.70;80.70;;;;;;4955754;29;20069;-76
2021/11/23 11:39:38;;;;;;;9.48;7.35;;;11.60;80.60;;;;;;4955304;29;20452;-75
2021/11/23 11:42:19;;;;;;;9.20;7.22;;;11.60;80.60;;;;;;4955891;29;20378;-76
2021/11/23 11:44:47;;;;;;;10.23;7.38;;;11.60;80.60;;;;;;4955782;29;20027;-77
2021/11/23 11:47:18;;;;;;;10.85;8.25;;;11.70;80.60;;;;;;4955650;29;20034;-76
2021/11/23 11:49:52;;;;;;;9.25;7.20;;;11.60;80.60;;;;;;4955611;29;20055;-76
2021/11/23 11:52:27;;;;;;;9.52;7.30;;;11.60;80.60;;;;;;4955654;29;20035;-76
2021/11/23 11:55:14;;;;;;;9.90;7.60;;;11.70;80.60;;;;;;4956496;28;20385;-76
2021/11/23 11:57:47;;;;;;;9.98;6.75;;;11.70;80.60;;;;;;4956797;28;20504;-76
2021/11/23 12:00:30;;;;;;;10.93;7.30;;;11.70;80.60;;;;;;4955559;29;20027;-75
2021/11/23 12:03:08;;;;;;;8.70;6.45;;;11.70;80.60;;;;;;4955491;29;20028;-75
2021/11/23 12:05:59;;;;;;;10.18;7.53;;;11.70;80.70;;;;;;4956067;28;20090;-75
2021/11/23 12:08:29;;;;;;;9.38;7.05;;;11.70;80.70;;;;;;4955454;29;20118;-75
2021/11/23 12:10:56;;;;;;;8.90;6.82;;;11.70;80.60;;;;;;4955184;29;20027;-75
2021/11/23 12:14:13;;;;;;;9.30;6.80;;;11.70;81.20;;;;;;4955137;29;20050;-76
2021/11/23 12:16:45;;;;;;;9.60;7.30;;;11.70;80.70;;;;;;4934942;29;20080;-76
2021/11/23 12:19:39;;;;;;;9.43;6.85;;;11.60;80.60;;;;;;4919183;29;20046;-75
2021/11/23 12:22:27;;;;;;;9.45;7.00;;;11.70;80.80;;;;;;4943544;29;20043;-75
2021/11/23 12:25:00;;;;;;;8.70;6.38;;;11.70;80.80;;;;;;4954883;29;20429;-75
2021/11/23 12:27:32;;;;;;;9.77;7.05;;;11.60;80.80;;;;;;4955017;29;20074;-76
2021/11/23 12:29:57;;;;;;;8.32;6.07;;;11.70;80.80;;;;;;4955438;28;20039;-76
2021/11/23 12:32:34;;;;;;;9.95;6.93;;;11.70;80.80;;;;;;4954896;29;20024;-76
2021/11/23 12:35:01;;;;;;;9.32;6.90;;;11.70;80.90;;;;;;4954379;29;20026;-75
2021/11/23 12:37:43;;;;;;;8.70;6.82;;;11.70;80.90;;;;;;4954772;29;20042;-75
2021/11/23 12:40:10;;;;;;;8.98;6.50;;;11.60;80.90;;;;;;4954486;29;20026;-75
2021/11/23 12:42:51;;;;;;;8.95;6.57;;;11.70;81.00;;;;;;4954919;29;20050;-75
2021/11/23 12:45:26;;;;;;;9.75;7.20;;;11.70;81.10;;;;;;4955615;28;20565;-76
2021/11/23 12:47:52;;;;;;;9.35;7.03;;;11.70;81.10;;;;;;4956173;28;20033;-75